createdAt,value
2019-05-30T00:00:53.909Z,56.32
2019-05-30T00:05:58.059Z,55.67
2019-05-30T00:11:01.182Z,55.87
2019-05-30T00:16:05.563Z,56.01
2019-05-30T00:21:08.580Z,55.95
2019-05-30T00:26:11.315Z,56.07
2019-05-30T00:31:14.049Z,56.20
2019-05-30T00:36:16.827Z,56.36
2019-05-30T00:41:19.656Z,56.86
2019-05-30T00:46:24.136Z,57.22
2019-05-30T00:51:27.003Z,56.96
2019-05-30T00:56:29.788Z,56.71
2019-05-30T01:01:32.526Z,56.78
2019-05-30T01:06:35.265Z,57.43
2019-05-30T01:11:38.032Z,57.37
2019-05-30T01:16:42.701Z,57.44
2019-05-30T01:21:45.606Z,57.50
2019-05-30T01:26:48.506Z,57.64
2019-05-30T01:31:51.241Z,57.82
2019-05-30T01:36:53.966Z,58.18
2019-05-30T01:41:57.738Z,58.38
2019-05-30T01:47:00.544Z,58.18
2019-05-30T01:52:04.469Z,58.31
2019-05-30T01:57:07.332Z,58.60
2019-05-30T02:02:10.063Z,59.00
2019-05-30T02:07:12.808Z,59.19
2019-05-30T02:12:15.583Z,59.52
2019-05-30T02:17:18.328Z,59.61
2019-05-30T02:22:21.059Z,59.76
2019-05-30T02:27:24.142Z,60.01
2019-05-30T02:32:26.974Z,60.05
2019-05-30T02:37:29.704Z,60.47
2019-05-30T02:42:32.429Z,60.97
2019-05-30T02:47:35.176Z,61.18
2019-05-30T02:52:37.922Z,61.10
2019-05-30T02:57:40.693Z,60.73
2019-05-30T03:02:43.493Z,61.26
2019-05-30T03:07:46.232Z,61.41
2019-05-30T03:12:49.010Z,61.50
2019-05-30T03:17:51.785Z,61.46
2019-05-30T03:22:54.528Z,61.49
2019-05-30T03:27:57.262Z,61.60
2019-05-30T03:33:07.573Z,61.36
2019-05-30T03:38:05.801Z,61.14
2019-05-30T03:43:11.256Z,60.92
2019-05-30T03:48:19.275Z,61.02
2019-05-30T03:53:22.525Z,61.11
2019-05-30T03:58:43.213Z,61.29
2019-05-30T04:04:08.994Z,61.15
2019-05-30T04:09:22.422Z,61.25
2019-05-30T04:14:27.503Z,61.37
2019-05-30T04:19:30.226Z,61.20
2019-05-30T04:24:32.990Z,61.35
2019-05-30T04:29:35.721Z,61.30
2019-05-30T04:34:38.444Z,61.12
2019-05-30T04:39:41.182Z,61.04
2019-05-30T04:44:43.917Z,60.88
2019-05-30T04:49:46.674Z,60.54
2019-05-30T04:54:49.406Z,60.41
2019-05-30T04:59:52.144Z,60.19
2019-05-30T05:04:54.890Z,59.84
2019-05-30T05:09:57.628Z,59.63
2019-05-30T05:15:00.386Z,59.33
2019-05-30T05:20:03.734Z,58.94
2019-05-30T05:25:06.791Z,58.79
2019-05-30T05:30:10.182Z,58.48
2019-05-30T05:35:14.664Z,58.35
2019-05-30T05:40:18.101Z,57.87
2019-05-30T05:45:22.663Z,57.79
2019-05-30T05:50:25.889Z,57.28
2019-05-30T05:55:29.163Z,57.17
2019-05-30T06:00:32.283Z,56.66
2019-05-30T06:05:35.549Z,56.25
2019-05-30T06:10:38.537Z,56.33
2019-05-30T06:15:41.486Z,56.09
2019-05-30T06:20:44.430Z,55.99
2019-05-30T06:25:47.395Z,55.28
2019-05-30T06:30:50.346Z,55.48
2019-05-30T06:35:53.315Z,54.22
2019-05-30T06:40:56.287Z,54.04
2019-05-30T06:45:59.976Z,54.18
2019-05-30T06:51:03.036Z,54.04
2019-05-30T06:56:05.959Z,54.02
2019-05-30T07:01:08.904Z,53.25
2019-05-30T07:06:12.516Z,52.90
2019-05-30T07:11:15.522Z,53.52
2019-05-30T07:16:18.251Z,53.11
2019-05-30T07:21:21.010Z,52.90
2019-05-30T07:26:23.889Z,52.45
2019-05-30T07:31:27.985Z,52.38
2019-05-30T07:36:30.784Z,53.10
2019-05-30T07:41:34.552Z,53.57
2019-05-30T07:46:37.592Z,53.40
2019-05-30T07:51:40.312Z,53.36
2019-05-30T07:56:43.041Z,53.14
2019-05-30T08:01:45.783Z,52.91
2019-05-30T08:06:48.507Z,53.93
2019-05-30T08:11:51.225Z,53.72
2019-05-30T08:16:53.950Z,54.01
2019-05-30T08:21:56.677Z,53.51
2019-05-30T08:26:59.420Z,54.61
2019-05-30T08:32:02.222Z,56.15
2019-05-30T08:37:04.975Z,56.85
2019-05-30T08:42:07.714Z,57.31
2019-05-30T08:47:10.469Z,57.57
2019-05-30T08:52:13.217Z,57.65
2019-05-30T08:57:16.223Z,57.72
2019-05-30T09:02:18.951Z,57.31
2019-05-30T09:07:21.689Z,56.77
2019-05-30T09:12:25.262Z,57.03
2019-05-30T09:17:29.063Z,56.88
2019-05-30T09:22:32.867Z,57.11
2019-05-30T09:27:35.958Z,56.79
2019-05-30T09:32:41.165Z,56.76
2019-05-30T09:37:45.765Z,56.16
2019-05-30T09:42:50.377Z,55.59
2019-05-30T09:47:55.615Z,55.59
2019-05-30T09:52:58.348Z,55.78
2019-05-30T09:58:01.070Z,55.10
2019-05-30T10:03:05.437Z,55.39
2019-05-30T10:08:08.233Z,55.64
2019-05-30T10:13:10.987Z,55.86
2019-05-30T10:18:13.715Z,55.20
2019-05-30T10:23:16.462Z,54.57
2019-05-30T10:28:19.262Z,54.54
2019-05-30T10:33:21.992Z,53.22
2019-05-30T10:38:26.132Z,51.39
2019-05-30T10:43:28.919Z,51.28
2019-05-30T10:48:31.661Z,50.79
2019-05-30T10:53:37.456Z,50.02
2019-05-30T10:58:39.128Z,50.39
2019-05-30T11:03:41.927Z,50.17
2019-05-30T11:08:47.919Z,49.57
2019-05-30T11:13:53.191Z,50.90
2019-05-30T11:18:56.240Z,51.71
2019-05-30T11:23:58.979Z,52.57
2019-05-30T11:29:01.755Z,52.64
2019-05-30T11:34:04.511Z,53.25
2019-05-30T11:39:07.253Z,54.18
2019-05-30T11:44:09.988Z,54.57
2019-05-30T11:49:12.777Z,55.30
2019-05-30T11:54:15.512Z,55.92
2019-05-30T11:59:18.238Z,55.63
2019-05-30T12:04:21.147Z,56.91
2019-05-30T12:09:24.538Z,56.97
2019-05-30T12:14:27.233Z,57.29
2019-05-30T12:19:29.960Z,57.85
2019-05-30T12:24:32.702Z,57.34
2019-05-30T12:29:35.422Z,56.61
2019-05-30T12:34:38.154Z,56.33
2019-05-30T12:39:40.886Z,57.10
2019-05-30T12:44:43.623Z,57.94
2019-05-30T12:49:46.358Z,58.77
2019-05-30T12:54:49.093Z,59.21
2019-05-30T12:59:51.837Z,59.39
2019-05-30T13:04:54.787Z,59.33
2019-05-30T13:09:57.554Z,59.46
2019-05-30T13:15:14.010Z,60.21
2019-05-30T13:20:17.333Z,59.88
2019-05-30T13:30:24.845Z,59.07
2019-05-30T13:35:27.677Z,59.53
2019-05-30T13:40:30.692Z,58.82
2019-05-30T13:45:33.640Z,59.35
2019-05-30T13:50:36.368Z,59.51
2019-05-30T13:55:39.145Z,58.92
2019-05-30T14:00:41.865Z,58.81
2019-05-30T14:05:44.571Z,58.74
2019-05-30T14:10:47.318Z,58.58
2019-05-30T14:15:50.125Z,56.65
2019-05-30T14:20:52.837Z,56.70
2019-05-30T14:25:55.547Z,57.06
2019-05-30T14:30:58.314Z,57.95
2019-05-30T14:36:04.570Z,56.97
2019-05-30T14:41:06.881Z,57.24
2019-05-30T14:46:10.897Z,57.83
2019-05-30T14:51:13.609Z,58.51
2019-05-30T14:56:17.561Z,59.40
2019-05-30T15:01:20.466Z,59.18
2019-05-30T15:06:23.217Z,60.30
2019-05-30T15:11:25.984Z,59.45
2019-05-30T15:16:28.714Z,59.34
2019-05-30T15:21:31.465Z,60.01
2019-05-30T15:26:34.184Z,61.43
2019-05-30T15:31:36.906Z,61.75
2019-05-30T15:36:39.640Z,61.42
2019-05-30T15:41:42.368Z,61.51
2019-05-30T15:46:45.084Z,61.53
2019-05-30T15:51:47.824Z,62.43
2019-05-30T15:56:50.554Z,61.87
2019-05-30T16:01:53.296Z,61.03
2019-05-30T16:06:56.022Z,59.94
2019-05-30T16:11:58.734Z,59.61
2019-05-30T16:17:01.463Z,60.56
2019-05-30T16:22:04.184Z,61.00
2019-05-30T16:27:06.900Z,60.81
2019-05-30T16:32:09.626Z,59.66
2019-05-30T16:37:12.448Z,60.14
2019-05-30T16:42:16.291Z,60.26
2019-05-30T16:47:19.081Z,60.50
2019-05-30T16:52:23.055Z,61.50
2019-05-30T16:57:26.730Z,61.08
2019-05-30T17:02:29.536Z,60.43
2019-05-30T17:07:32.259Z,60.65
2019-05-30T17:12:35.284Z,61.23
2019-05-30T17:17:38.000Z,61.98
2019-05-30T17:22:40.715Z,62.46
2019-05-30T17:27:43.440Z,62.36
2019-05-30T17:32:46.172Z,62.49
2019-05-30T17:37:49.293Z,62.58
2019-05-30T17:42:52.105Z,63.12
2019-05-30T17:48:02.649Z,63.47
2019-05-30T17:52:59.827Z,64.04
2019-05-30T17:58:02.654Z,63.97
2019-05-30T18:03:05.372Z,63.66
2019-05-30T18:08:08.091Z,63.84
2019-05-30T18:13:10.815Z,64.43
2019-05-30T18:18:13.545Z,65.18
2019-05-30T18:23:16.335Z,65.63
2019-05-30T18:28:19.137Z,65.80
2019-05-30T18:33:22.174Z,66.03
2019-05-30T18:38:26.919Z,66.31
2019-05-30T18:43:30.935Z,66.66
2019-05-30T18:48:33.771Z,66.56
2019-05-30T18:53:36.792Z,66.32
2019-05-30T18:58:39.575Z,65.87
2019-05-30T19:03:42.410Z,65.75
2019-05-30T19:08:45.105Z,65.63
2019-05-30T19:13:47.870Z,66.25
2019-05-30T19:18:50.574Z,66.94
2019-05-30T19:23:53.294Z,68.02
2019-05-30T19:28:56.029Z,68.90
2019-05-30T19:33:58.752Z,69.29
2019-05-30T19:39:01.498Z,69.67
2019-05-30T19:44:04.225Z,69.98
2019-05-30T19:49:06.966Z,70.08
2019-05-30T19:54:09.693Z,70.10
2019-05-30T19:59:12.406Z,70.40
2019-05-30T20:04:15.117Z,70.90
2019-05-30T20:09:17.869Z,71.38
2019-05-30T20:14:20.591Z,71.76
2019-05-30T20:19:23.322Z,72.17
2019-05-30T20:24:26.032Z,72.44
2019-05-30T20:29:28.798Z,72.66
2019-05-30T20:34:32.922Z,72.68
2019-05-30T20:39:36.587Z,72.60
2019-05-30T20:44:39.522Z,72.90
2019-05-30T20:49:43.385Z,73.20
2019-05-30T20:54:47.638Z,73.50
2019-05-30T20:59:50.415Z,73.76
2019-05-30T21:04:53.206Z,73.81
2019-05-30T21:09:56.355Z,73.54
2019-05-30T21:15:01.675Z,73.39
2019-05-30T21:20:04.673Z,73.29
2019-05-30T21:25:07.785Z,73.22
2019-05-30T21:30:11.108Z,73.28
2019-05-30T21:35:14.241Z,73.44
2019-05-30T21:40:17.156Z,73.55
2019-05-30T21:45:19.881Z,73.66
2019-05-30T21:50:22.637Z,73.78
2019-05-30T21:55:25.378Z,74.04
2019-05-30T22:01:30.827Z,74.61
2019-05-30T22:06:33.849Z,74.98
2019-05-30T22:11:36.629Z,75.27
2019-05-30T22:16:39.327Z,75.51
2019-05-30T22:21:42.064Z,75.69
2019-05-30T22:26:44.742Z,75.83
2019-05-30T22:31:48.509Z,76.11
2019-05-30T22:36:51.353Z,75.66
2019-05-30T22:41:54.060Z,75.46
2019-05-30T22:46:57.027Z,75.43
2019-05-30T22:51:59.789Z,75.19
2019-05-30T22:57:02.576Z,74.73
2019-05-30T23:02:05.346Z,74.67
2019-05-30T23:07:08.068Z,74.55
2019-05-30T23:12:10.799Z,74.43
2019-05-30T23:17:13.526Z,74.26
2019-05-30T23:22:16.244Z,74.46
2019-05-30T23:27:18.960Z,74.23
2019-05-30T23:32:21.712Z,74.50
2019-05-30T23:37:24.436Z,74.54
2019-05-30T23:42:27.172Z,74.51
2019-05-30T23:47:29.996Z,74.51
2019-05-30T23:52:32.839Z,74.50
2019-05-30T23:57:35.558Z,74.61
